Time;durP1;ratioP1;P1;durP2;ratioP2;P2;SDS_P1;SDS_P2;PMS_P1;PMS_P2;Temp;Humidity;BMP_temperature;BMP_pressure;BME280_temperature;BME280_humidity;BME280_pressure;Samples;Min_cycle;Max_cycle;Signal;HPM_P1;HPM_P2
2023/04/08 00:01:34;;;;;;;7.03;6.30;;;8.50;99.90;;;;;;5011766;28;20282;-36
2023/04/08 00:04:00;;;;;;;7.93;6.80;;;8.50;99.90;;;;;;5018397;28;20206;-38
2023/04/08 00:06:26;;;;;;;8.70;6.23;;;8.40;99.90;;;;;;5010824;28;20256;-40
2023/04/08 00:08:52;;;;;;;8.10;6.67;;;8.40;99.90;;;;;;5005842;28;20219;-36
2023/04/08 00:11:18;;;;;;;8.33;5.97;;;8.40;99.90;;;;;;4999755;28;20175;-38
2023/04/08 00:13:43;;;;;;;6.70;6.10;;;8.30;99.90;;;;;;5029855;28;20230;-36
2023/04/08 00:16:09;;;;;;;9.23;7.00;;;8.30;99.90;;;;;;5024982;28;20206;-40
2023/04/08 00:18:37;;;;;;;7.80;6.97;;;8.30;99.90;;;;;;5006282;28;20176;-39
2023/04/08 00:21:03;;;;;;;7.40;6.30;;;8.30;99.90;;;;;;5011648;28;20190;-36
2023/04/08 00:23:29;;;;;;;6.97;6.00;;;8.40;99.90;;;;;;5007058;28;20218;-37
2023/04/08 00:25:54;;;;;;;7.53;6.73;;;8.40;99.90;;;;;;5021733;28;20203;-39
2023/04/08 00:28:20;;;;;;;7.30;6.60;;;8.40;99.90;;;;;;5005274;28;20175;-36
2023/04/08 00:30:46;;;;;;;8.13;6.80;;;8.30;99.90;;;;;;5015402;28;20205;-36
2023/04/08 00:33:12;;;;;;;10.30;7.30;;;8.30;99.90;;;;;;5014816;28;20305;-38
2023/04/08 00:35:37;;;;;;;8.03;6.93;;;8.20;99.90;;;;;;4991056;28;20273;-38
2023/04/08 00:38:06;;;;;;;8.00;6.50;;;8.20;99.90;;;;;;5011900;28;20179;-40
2023/04/08 00:40:33;;;;;;;8.07;7.27;;;8.20;99.90;;;;;;5011822;28;20202;-38
2023/04/08 00:42:59;;;;;;;7.70;6.40;;;8.20;99.90;;;;;;4999563;28;20182;-39
2023/04/08 00:45:25;;;;;;;8.10;7.10;;;8.20;99.90;;;;;;5014400;28;20246;-39
2023/04/08 00:47:51;;;;;;;7.80;7.00;;;8.30;99.90;;;;;;4997598;28;20254;-39
2023/04/08 00:50:19;;;;;;;8.63;6.23;;;8.30;99.90;;;;;;5026574;28;20262;-36
2023/04/08 00:52:45;;;;;;;6.97;6.27;;;8.30;99.90;;;;;;5006845;28;20178;-38
2023/04/08 00:55:10;;;;;;;7.63;6.43;;;8.30;99.90;;;;;;5013819;28;20213;-37
2023/04/08 00:57:36;;;;;;;7.50;6.80;;;8.30;99.90;;;;;;5007426;28;20204;-38
2023/04/08 01:00:06;;;;;;;7.50;6.70;;;8.30;99.90;;;;;;5004428;28;20178;-37
2023/04/08 01:02:44;;;;;;;8.27;6.83;;;8.30;99.90;;;;;;4998810;28;20198;-37
2023/04/08 01:05:18;;;;;;;9.20;7.40;;;8.30;99.90;;;;;;5003045;28;20317;-36
2023/04/08 01:07:47;;;;;;;10.37;8.00;;;8.30;99.90;;;;;;5015585;28;20174;-36
2023/04/08 01:10:32;;;;;;;9.07;7.80;;;8.20;99.90;;;;;;5029219;28;20182;-38
2023/04/08 01:13:04;;;;;;;9.90;7.83;;;8.20;99.90;;;;;;5010446;28;20215;-38
2023/04/08 01:15:32;;;;;;;8.80;7.90;;;8.20;99.90;;;;;;4996634;28;20289;-36
2023/04/08 01:18:00;;;;;;;11.80;7.63;;;8.20;99.90;;;;;;5014098;28;20189;-37
2023/04/08 01:20:28;;;;;;;10.13;7.97;;;8.20;99.90;;;;;;4997810;28;20366;-39
2023/04/08 01:23:05;;;;;;;11.00;8.20;;;8.20;99.90;;;;;;5011143;28;20198;-39
2023/04/08 01:25:34;;;;;;;8.33;7.53;;;8.20;99.90;;;;;;5007126;28;20185;-39
2023/04/08 01:28:05;;;;;;;9.03;7.57;;;8.20;99.90;;;;;;4993747;28;20183;-37
2023/04/08 01:30:32;;;;;;;8.90;7.37;;;8.20;99.90;;;;;;5006896;28;20666;-38
2023/04/08 01:33:00;;;;;;;9.40;8.40;;;8.20;99.90;;;;;;5025210;28;20183;-36
2023/04/08 01:35:27;;;;;;;9.00;8.07;;;8.10;99.90;;;;;;5007294;28;20206;-39
2023/04/08 01:37:54;;;;;;;8.70;7.80;;;8.10;99.90;;;;;;5011516;28;20177;-38
2023/04/08 01:40:21;;;;;;;8.87;7.97;;;8.10;99.90;;;;;;5011453;28;20266;-36
2023/04/08 01:42:49;;;;;;;8.90;7.60;;;8.10;99.90;;;;;;4999026;28;20601;-38
2023/04/08 01:45:16;;;;;;;8.80;7.90;;;8.10;99.90;;;;;;4979596;28;20205;-37
2023/04/08 01:47:46;;;;;;;8.77;7.63;;;8.10;99.90;;;;;;5014260;28;20181;-39
2023/04/08 01:50:14;;;;;;;12.47;10.70;;;8.10;99.90;;;;;;4997753;28;20190;-36
2023/04/08 01:52:42;;;;;;;12.60;10.03;;;8.10;99.90;;;;;;5012991;28;20182;-38
2023/04/08 01:55:08;;;;;;;12.83;10.53;;;8.00;99.90;;;;;;5027089;28;20213;-41
2023/04/08 01:57:37;;;;;;;11.47;9.90;;;8.00;99.90;;;;;;5002145;28;20171;-39
2023/04/08 02:00:07;;;;;;;14.70;11.33;;;7.90;99.90;;;;;;5011167;28;20208;-37
2023/04/08 02:02:46;;;;;;;14.13;10.53;;;8.00;99.90;;;;;;5015135;28;20182;-36
2023/04/08 02:05:13;;;;;;;13.80;10.87;;;7.90;99.90;;;;;;4997914;28;20206;-39
2023/04/08 02:07:39;;;;;;;12.97;10.77;;;7.90;99.90;;;;;;5014101;28;20297;-36
2023/04/08 02:10:05;;;;;;;13.67;10.23;;;7.90;99.90;;;;;;5014095;28;20269;-37
2023/04/08 02:12:33;;;;;;;13.30;10.30;;;7.80;99.90;;;;;;4997397;28;20179;-36
2023/04/08 02:14:59;;;;;;;14.23;11.13;;;7.80;99.90;;;;;;5013509;28;20213;-37
2023/04/08 02:17:54;;;;;;;13.67;10.73;;;7.90;99.90;;;;;;5030078;28;20182;-41
2023/04/08 02:20:37;;;;;;;13.10;10.83;;;7.90;99.90;;;;;;4995410;28;20181;-36
2023/04/08 02:23:13;;;;;;;12.67;10.40;;;8.00;99.90;;;;;;5010083;28;20196;-41
2023/04/08 02:25:43;;;;;;;13.37;10.80;;;8.00;99.90;;;;;;5013444;28;20186;-39
2023/04/08 02:28:10;;;;;;;13.83;11.10;;;8.10;99.90;;;;;;5012840;28;20527;-39
2023/04/08 02:30:40;;;;;;;13.17;10.53;;;8.10;99.90;;;;;;4998307;28;20403;-37
2023/04/08 02:33:07;;;;;;;13.03;10.80;;;8.20;99.90;;;;;;4995567;28;20182;-39
2023/04/08 02:35:35;;;;;;;12.87;10.70;;;8.20;99.90;;;;;;4997739;28;20285;-39
2023/04/08 02:38:01;;;;;;;12.50;9.67;;;8.20;99.90;;;;;;4995227;28;20178;-39
2023/04/08 02:40:32;;;;;;;11.53;9.20;;;8.30;99.90;;;;;;4980234;28;20183;-36
2023/04/08 02:42:58;;;;;;;11.43;9.47;;;8.20;99.90;;;;;;5013972;28;20237;-38
2023/04/08 02:45:39;;;;;;;10.83;8.90;;;8.30;99.90;;;;;;4997052;28;20179;-37
2023/04/08 02:48:05;;;;;;;10.27;8.83;;;8.20;99.90;;;;;;5010491;28;20194;-37
2023/04/08 02:50:33;;;;;;;11.70;9.67;;;8.20;99.90;;;;;;4999026;28;20201;-37
2023/04/08 02:52:59;;;;;;;10.93;9.20;;;8.20;99.90;;;;;;5012287;28;20180;-39
2023/04/08 02:55:25;;;;;;;10.40;9.30;;;8.20;99.90;;;;;;5013101;28;20212;-38
2023/04/08 02:57:51;;;;;;;12.00;10.10;;;8.20;99.90;;;;;;5010587;28;20209;-39
2023/04/08 03:00:16;;;;;;;12.03;9.77;;;8.20;99.90;;;;;;5010982;28;20179;-37
2023/04/08 03:02:42;;;;;;;12.07;10.30;;;8.20;99.90;;;;;;5008062;28;20180;-36
2023/04/08 03:05:08;;;;;;;11.23;9.57;;;8.20;99.90;;;;;;4997971;28;20210;-37
2023/04/08 03:07:34;;;;;;;11.47;9.40;;;8.20;99.90;;;;;;5031255;28;20228;-38
2023/04/08 03:10:01;;;;;;;11.63;9.63;;;8.20;99.90;;;;;;4995927;28;20188;-38
2023/04/08 03:12:27;;;;;;;11.27;9.27;;;8.10;99.90;;;;;;5022114;28;20269;-38
2023/04/08 03:14:53;;;;;;;12.47;10.30;;;8.10;99.90;;;;;;5012904;28;20301;-37
2023/04/08 03:17:19;;;;;;;12.00;10.47;;;8.10;99.90;;;;;;5013315;28;20178;-39
2023/04/08 03:19:45;;;;;;;12.07;10.77;;;8.10;99.90;;;;;;4998917;28;20180;-35
2023/04/08 03:22:12;;;;;;;13.30;10.57;;;8.10;99.90;;;;;;5005856;28;20178;-39
2023/04/08 03:24:38;;;;;;;12.50;10.77;;;8.20;99.90;;;;;;4997125;28;20198;-38
2023/04/08 03:27:04;;;;;;;14.40;11.37;;;8.10;99.90;;;;;;5021168;28;20182;-38
2023/04/08 03:29:30;;;;;;;13.13;10.67;;;8.10;99.90;;;;;;5012372;28;20170;-36
2023/04/08 03:31:55;;;;;;;12.47;10.30;;;8.10;99.90;;;;;;5029641;28;20178;-38
2023/04/08 03:34:21;;;;;;;12.23;10.17;;;8.10;99.90;;;;;;5008731;28;20198;-38
2023/04/08 03:36:47;;;;;;;12.57;9.87;;;8.00;99.90;;;;;;5030149;28;20214;-36
2023/04/08 03:39:13;;;;;;;13.37;10.87;;;8.10;99.90;;;;;;5021039;28;20187;-37
2023/04/08 03:41:38;;;;;;;13.37;10.90;;;8.10;99.90;;;;;;4995229;28;20182;-38
2023/04/08 03:44:04;;;;;;;12.03;10.27;;;8.10;99.90;;;;;;4995035;28;20209;-36
2023/04/08 03:46:30;;;;;;;12.73;10.73;;;8.00;99.90;;;;;;5012348;28;20194;-37
2023/04/08 03:48:56;;;;;;;13.83;10.93;;;8.10;99.90;;;;;;5016301;28;20184;-37
2023/04/08 03:51:22;;;;;;;12.97;10.97;;;8.00;99.90;;;;;;5013325;28;20186;-39
2023/04/08 03:53:48;;;;;;;12.43;10.60;;;8.00;99.90;;;;;;5006057;28;20207;-36
2023/04/08 03:56:14;;;;;;;11.83;9.97;;;8.00;99.90;;;;;;5011878;28;20210;-40
2023/04/08 03:58:40;;;;;;;12.23;10.07;;;8.00;99.90;;;;;;4995916;28;20633;-39
2023/04/08 04:01:06;;;;;;;14.07;11.77;;;8.00;99.90;;;;;;5021654;28;20216;-38
2023/04/08 04:03:31;;;;;;;13.30;11.43;;;8.00;99.90;;;;;;5005133;28;20248;-39
2023/04/08 04:05:57;;;;;;;14.63;11.40;;;8.00;99.90;;;;;;5011587;28;20189;-37
2023/04/08 04:08:23;;;;;;;13.53;11.53;;;8.00;99.90;;;;;;5009065;28;20239;-37
2023/04/08 04:10:49;;;;;;;14.37;10.73;;;8.00;99.90;;;;;;5003282;28;20191;-36
2023/04/08 04:13:15;;;;;;;13.03;11.37;;;7.90;99.90;;;;;;5030380;28;20199;-38
2023/04/08 04:15:41;;;;;;;12.70;10.90;;;7.90;99.90;;;;;;5016384;28;20307;-36
2023/04/08 04:18:07;;;;;;;14.10;10.60;;;7.90;99.90;;;;;;5016790;28;20884;-36
2023/04/08 04:20:32;;;;;;;14.93;12.10;;;7.80;99.90;;;;;;5014555;28;20185;-36
2023/04/08 04:22:58;;;;;;;15.37;12.17;;;7.90;99.90;;;;;;5020737;28;20179;-39
2023/04/08 04:25:24;;;;;;;15.50;11.80;;;7.90;99.90;;;;;;5005705;28;20558;-38
2023/04/08 04:27:50;;;;;;;14.97;11.70;;;7.80;99.90;;;;;;5016619;28;20182;-36
2023/04/08 04:30:16;;;;;;;13.57;11.17;;;7.80;99.90;;;;;;5017451;28;20182;-38
2023/04/08 04:32:42;;;;;;;14.23;11.63;;;7.80;99.90;;;;;;5015544;28;20186;-39
2023/04/08 04:35:12;;;;;;;15.17;12.13;;;7.80;99.90;;;;;;5030682;28;20211;-37
2023/04/08 04:37:38;;;;;;;15.17;12.20;;;7.80;99.90;;;;;;5031971;28;20182;-39
2023/04/08 04:40:04;;;;;;;14.50;11.57;;;7.80;99.90;;;;;;5011990;28;20178;-36
2023/04/08 04:42:31;;;;;;;15.23;11.83;;;7.80;99.90;;;;;;5022114;28;20187;-39
2023/04/08 04:44:57;;;;;;;16.07;12.87;;;7.80;99.90;;;;;;4995748;28;20239;-38
2023/04/08 04:47:24;;;;;;;15.27;11.90;;;7.80;99.90;;;;;;5013697;28;20273;-39
2023/04/08 04:49:50;;;;;;;16.97;12.33;;;7.80;99.90;;;;;;5011099;28;20267;-39
2023/04/08 04:52:16;;;;;;;17.23;12.70;;;7.80;99.90;;;;;;5014661;28;20181;-37
2023/04/08 04:54:41;;;;;;;17.77;13.43;;;7.80;99.90;;;;;;4997761;28;20210;-40
2023/04/08 04:57:07;;;;;;;17.23;13.60;;;7.80;99.90;;;;;;5033386;28;20192;-39
2023/04/08 04:59:33;;;;;;;18.03;14.10;;;7.80;99.90;;;;;;5004170;28;20178;-39
2023/04/08 05:01:59;;;;;;;17.37;15.10;;;7.80;99.90;;;;;;5023004;28;20213;-36
2023/04/08 05:04:25;;;;;;;19.43;14.43;;;7.80;99.90;;;;;;5023610;28;20198;-36
2023/04/08 05:06:51;;;;;;;21.03;14.23;;;7.80;99.90;;;;;;4998855;28;20208;-38
2023/04/08 05:09:17;;;;;;;17.80;13.63;;;7.70;99.90;;;;;;5032381;28;20196;-36
2023/04/08 05:11:43;;;;;;;20.43;14.40;;;7.70;99.90;;;;;;5004515;28;20205;-37
2023/04/08 05:14:09;;;;;;;18.20;14.00;;;7.70;99.90;;;;;;5032644;28;20231;-36
2023/04/08 05:16:35;;;;;;;18.67;13.60;;;7.70;99.90;;;;;;5014551;28;20206;-39
2023/04/08 05:19:01;;;;;;;20.03;13.33;;;7.70;99.90;;;;;;5032303;28;20205;-39
2023/04/08 05:21:27;;;;;;;18.03;13.47;;;7.70;99.90;;;;;;4985108;28;20191;-39
2023/04/08 05:23:53;;;;;;;16.97;13.87;;;7.70;99.90;;;;;;5028718;28;20222;-36
2023/04/08 05:26:20;;;;;;;15.90;12.63;;;7.80;99.90;;;;;;5025569;28;20217;-39
2023/04/08 05:28:50;;;;;;;15.77;12.47;;;7.80;99.90;;;;;;5015460;28;20182;-37
2023/04/08 05:31:18;;;;;;;16.07;12.40;;;7.80;99.90;;;;;;5031431;28;20185;-39
2023/04/08 05:33:44;;;;;;;18.93;12.80;;;7.80;99.90;;;;;;5014604;28;20205;-38
2023/04/08 05:36:11;;;;;;;18.00;11.83;;;7.80;99.90;;;;;;5014971;28;20199;-36
2023/04/08 05:38:37;;;;;;;16.03;12.20;;;7.80;99.90;;;;;;5012446;28;20182;-39
2023/04/08 05:41:02;;;;;;;15.60;11.90;;;7.90;99.90;;;;;;5013761;28;20190;-37
2023/04/08 05:43:28;;;;;;;16.90;12.67;;;7.90;99.90;;;;;;5004171;28;20194;-37
2023/04/08 05:45:54;;;;;;;28.30;17.50;;;7.90;99.90;;;;;;5032699;28;20233;-38
2023/04/08 05:48:20;;;;;;;35.30;20.93;;;7.90;99.90;;;;;;5013111;28;20178;-39
2023/04/08 05:50:47;;;;;;;29.13;20.47;;;7.90;99.90;;;;;;5014969;28;20194;-36
2023/04/08 05:53:13;;;;;;;28.03;22.43;;;8.00;99.90;;;;;;5011190;28;20183;-36
2023/04/08 05:55:40;;;;;;;19.27;14.03;;;7.90;99.90;;;;;;5006208;28;20232;-39
2023/04/08 05:58:06;;;;;;;17.53;12.87;;;7.90;99.90;;;;;;5013761;28;20185;-39
2023/04/08 06:00:31;;;;;;;18.77;13.30;;;8.00;99.90;;;;;;4999924;28;20186;-39
2023/04/08 06:02:57;;;;;;;20.13;15.00;;;8.00;99.90;;;;;;5011129;28;20299;-39
2023/04/08 06:05:23;;;;;;;18.23;13.87;;;8.10;99.90;;;;;;5014363;28;20200;-36
2023/04/08 06:07:49;;;;;;;15.57;11.57;;;8.10;99.90;;;;;;5025885;28;20178;-36
2023/04/08 06:10:15;;;;;;;16.57;12.27;;;8.10;99.90;;;;;;5031052;28;20185;-36
2023/04/08 06:12:41;;;;;;;14.60;11.63;;;8.10;99.90;;;;;;5029857;28;20189;-36
2023/04/08 06:15:08;;;;;;;14.97;11.53;;;8.20;99.90;;;;;;5007360;28;20211;-37
2023/04/08 06:17:37;;;;;;;14.03;11.17;;;8.20;99.90;;;;;;4983474;28;20175;-38
2023/04/08 06:20:05;;;;;;;15.70;11.07;;;8.20;99.90;;;;;;5011235;28;20178;-36
2023/04/08 06:22:31;;;;;;;13.20;10.43;;;8.20;99.90;;;;;;4986584;28;20179;-41
2023/04/08 06:24:57;;;;;;;14.27;11.23;;;8.30;99.90;;;;;;4991275;28;20214;-39
2023/04/08 06:27:23;;;;;;;14.30;11.07;;;8.30;99.90;;;;;;5009119;28;20203;-37
2023/04/08 06:29:49;;;;;;;14.43;10.80;;;8.30;99.90;;;;;;4994994;28;20183;-36
2023/04/08 06:32:15;;;;;;;12.90;9.90;;;8.40;99.90;;;;;;4974896;28;20313;-37
2023/04/08 06:34:43;;;;;;;12.47;10.50;;;8.40;99.90;;;;;;5010214;28;20735;-36
2023/04/08 06:37:09;;;;;;;14.47;10.40;;;8.40;99.90;;;;;;5010638;28;20705;-42
2023/04/08 06:39:35;;;;;;;12.17;9.30;;;8.50;99.90;;;;;;4975562;28;20180;-40
2023/04/08 06:42:01;;;;;;;12.33;10.20;;;8.50;99.90;;;;;;4990385;28;20182;-43
2023/04/08 06:44:37;;;;;;;11.97;10.37;;;8.60;99.90;;;;;;5011729;28;20191;-37
2023/04/08 06:47:03;;;;;;;10.20;8.67;;;8.60;99.90;;;;;;4995140;28;20175;-39
2023/04/08 06:49:29;;;;;;;13.20;9.00;;;8.70;99.90;;;;;;4977650;28;20215;-37
2023/04/08 06:51:55;;;;;;;12.13;9.20;;;8.70;99.90;;;;;;5024889;28;20179;-39
2023/04/08 06:54:20;;;;;;;12.73;9.57;;;8.80;99.90;;;;;;4975099;28;20198;-39
2023/04/08 06:56:46;;;;;;;10.37;9.00;;;8.80;99.90;;;;;;5008858;28;20207;-42
2023/04/08 06:59:12;;;;;;;11.73;9.37;;;8.80;99.90;;;;;;5008804;28;20179;-39
2023/04/08 07:01:38;;;;;;;12.20;9.33;;;8.70;99.90;;;;;;5009182;28;20178;-38
2023/04/08 07:04:04;;;;;;;10.70;8.90;;;8.70;99.90;;;;;;5010715;28;20241;-40
2023/04/08 07:06:29;;;;;;;11.03;9.40;;;8.70;99.90;;;;;;5010308;28;20186;-37
2023/04/08 07:08:55;;;;;;;12.83;9.67;;;8.60;99.90;;;;;;5011470;28;20179;-43
2023/04/08 07:11:21;;;;;;;12.23;9.63;;;8.50;99.90;;;;;;4993685;28;20279;-37
2023/04/08 07:13:47;;;;;;;11.67;8.90;;;8.50;99.90;;;;;;5018010;28;20206;-37
2023/04/08 07:16:13;;;;;;;11.97;10.47;;;8.50;99.90;;;;;;5013554;28;20209;-37
2023/04/08 07:18:40;;;;;;;12.93;10.57;;;8.50;99.90;;;;;;4997135;28;20249;-42
2023/04/08 07:21:06;;;;;;;12.83;9.90;;;8.50;99.90;;;;;;4997238;28;20185;-40
2023/04/08 07:23:31;;;;;;;12.57;9.47;;;8.60;99.90;;;;;;4996515;28;20206;-39
2023/04/08 07:26:04;;;;;;;12.80;9.37;;;8.60;99.90;;;;;;5013506;28;20190;-36
2023/04/08 07:28:30;;;;;;;12.57;9.93;;;8.70;99.90;;;;;;5013543;28;20628;-39
2023/04/08 07:30:56;;;;;;;12.43;10.40;;;8.60;99.90;;;;;;5029878;28;20178;-40
2023/04/08 07:33:22;;;;;;;12.30;10.33;;;8.60;99.90;;;;;;5030948;28;20211;-38
2023/04/08 07:35:48;;;;;;;9.70;8.50;;;8.60;99.90;;;;;;4989266;28;20214;-38
2023/04/08 07:38:14;;;;;;;9.93;8.37;;;8.70;99.90;;;;;;5013305;28;20185;-38
2023/04/08 07:40:40;;;;;;;11.73;9.27;;;8.60;99.90;;;;;;5035211;28;20225;-36
2023/04/08 07:43:07;;;;;;;11.27;9.50;;;8.60;99.90;;;;;;5017543;28;20181;-37
2023/04/08 07:45:33;;;;;;;10.70;8.73;;;8.60;99.90;;;;;;5034800;28;20183;-38
2023/04/08 07:48:00;;;;;;;11.00;9.57;;;8.70;99.90;;;;;;5035096;28;20175;-38
2023/04/08 07:50:26;;;;;;;10.17;8.67;;;8.60;99.90;;;;;;5034827;28;20184;-38
2023/04/08 07:52:52;;;;;;;9.83;8.73;;;8.60;99.90;;;;;;5000494;28;20273;-36
2023/04/08 07:55:18;;;;;;;11.50;8.67;;;8.70;99.90;;;;;;5016822;28;20210;-37
2023/04/08 07:57:44;;;;;;;10.03;8.77;;;8.70;99.90;;;;;;5000681;28;20182;-39
2023/04/08 08:00:11;;;;;;;10.20;8.97;;;8.70;99.90;;;;;;5033474;28;20185;-37
2023/04/08 08:02:40;;;;;;;11.73;9.03;;;8.70;99.90;;;;;;5033566;28;20298;-38
2023/04/08 08:05:06;;;;;;;10.60;8.73;;;8.60;99.90;;;;;;5016774;28;20299;-38
2023/04/08 08:07:32;;;;;;;9.80;8.80;;;8.60;99.90;;;;;;5005337;28;20175;-38
2023/04/08 08:09:58;;;;;;;11.73;8.93;;;8.70;99.90;;;;;;5013264;28;20777;-36
2023/04/08 08:12:24;;;;;;;10.70;8.70;;;8.70;99.90;;;;;;4981259;28;20191;-39
2023/04/08 08:14:50;;;;;;;12.47;9.80;;;8.70;99.90;;;;;;5014269;28;20211;-40
2023/04/08 08:17:16;;;;;;;9.10;8.13;;;8.80;99.90;;;;;;4981122;28;20185;-39
2023/04/08 08:19:42;;;;;;;10.93;8.13;;;8.90;99.90;;;;;;4980991;28;20183;-38
2023/04/08 08:22:08;;;;;;;11.17;9.03;;;9.00;99.90;;;;;;5014625;28;20180;-38
2023/04/08 08:24:34;;;;;;;9.63;8.47;;;8.90;99.90;;;;;;5013940;28;20222;-36
2023/04/08 08:27:01;;;;;;;8.67;7.77;;;8.90;99.90;;;;;;4980929;28;20301;-37
2023/04/08 08:29:27;;;;;;;8.60;7.67;;;8.90;99.90;;;;;;4980755;28;20214;-41
2023/04/08 08:31:53;;;;;;;9.10;8.20;;;8.80;99.90;;;;;;4996535;28;20297;-38
2023/04/08 08:34:19;;;;;;;11.40;10.20;;;8.80;99.90;;;;;;5014955;28;20297;-39
2023/04/08 08:36:45;;;;;;;9.47;8.27;;;8.90;99.90;;;;;;4999903;28;20237;-37
2023/04/08 08:39:11;;;;;;;10.20;7.83;;;8.90;99.90;;;;;;5018930;28;20217;-36
2023/04/08 08:41:36;;;;;;;8.50;7.60;;;8.90;99.90;;;;;;5034213;28;20171;-38
2023/04/08 08:44:05;;;;;;;10.73;8.23;;;9.10;99.90;;;;;;5015896;28;20218;-37
2023/04/08 08:46:30;;;;;;;10.70;8.73;;;9.10;99.90;;;;;;5000055;28;20265;-39
2023/04/08 08:48:57;;;;;;;10.40;8.70;;;9.20;99.90;;;;;;5032361;28;20282;-37
2023/04/08 08:51:23;;;;;;;11.63;8.93;;;9.20;99.90;;;;;;5015946;28;20190;-36
2023/04/08 08:53:49;;;;;;;11.27;8.77;;;9.20;99.90;;;;;;4999381;28;20305;-37
2023/04/08 08:56:15;;;;;;;10.20;8.70;;;9.20;99.90;;;;;;5016094;28;20293;-39
2023/04/08 08:58:41;;;;;;;10.97;9.63;;;9.40;99.90;;;;;;5032561;28;20175;-36
2023/04/08 09:01:34;;;;;;;12.80;9.60;;;9.50;99.90;;;;;;5015930;28;20187;-39
2023/04/08 09:04:08;;;;;;;12.50;9.07;;;9.50;99.90;;;;;;5016015;28;20190;-40
2023/04/08 09:06:35;;;;;;;11.57;9.43;;;9.60;99.90;;;;;;5000259;28;20558;-37
2023/04/08 09:09:03;;;;;;;12.87;9.70;;;9.70;99.90;;;;;;4999355;28;20186;-36
2023/04/08 09:11:29;;;;;;;10.70;8.80;;;9.80;99.90;;;;;;4999388;28;20198;-36
2023/04/08 09:13:56;;;;;;;11.90;9.60;;;9.60;99.90;;;;;;5033038;28;20214;-36
2023/04/08 09:16:22;;;;;;;10.60;8.27;;;9.70;99.90;;;;;;5033263;28;20261;-39
2023/04/08 09:18:48;;;;;;;9.80;8.67;;;9.80;99.90;;;;;;5031529;28;20288;-38
2023/04/08 09:21:16;;;;;;;10.63;8.47;;;10.00;99.90;;;;;;5031326;28;20181;-37
2023/04/08 09:23:47;;;;;;;11.47;8.50;;;10.20;99.90;;;;;;5009791;28;20207;-39
2023/04/08 09:26:21;;;;;;;10.30;8.80;;;10.40;99.90;;;;;;5015285;28;20175;-39
2023/04/08 09:29:02;;;;;;;10.20;8.87;;;10.40;99.90;;;;;;5013506;28;20192;-37
2023/04/08 09:31:30;;;;;;;10.23;9.03;;;10.50;99.90;;;;;;4995658;28;20191;-37
2023/04/08 09:33:58;;;;;;;10.23;8.50;;;10.50;99.90;;;;;;4995456;28;20286;-39
2023/04/08 09:36:26;;;;;;;11.60;8.67;;;10.60;99.90;;;;;;5017292;28;20206;-36
2023/04/08 09:38:53;;;;;;;10.10;8.97;;;10.50;99.90;;;;;;5041717;28;20232;-39
2023/04/08 09:41:22;;;;;;;10.40;9.10;;;10.70;99.90;;;;;;5035910;28;20189;-38
2023/04/08 09:43:51;;;;;;;12.53;9.40;;;10.70;99.90;;;;;;5031990;28;20218;-38
2023/04/08 09:46:31;;;;;;;9.87;8.87;;;10.60;99.90;;;;;;5039611;28;20174;-39
2023/04/08 09:49:10;;;;;;;9.70;8.30;;;10.70;99.90;;;;;;5037792;28;20224;-37
2023/04/08 09:52:02;;;;;;;9.80;8.23;;;10.90;99.90;;;;;;5023086;28;20203;-39
2023/04/08 09:54:37;;;;;;;10.43;9.03;;;11.10;99.90;;;;;;5034107;28;20211;-39
2023/04/08 09:57:15;;;;;;;9.73;8.73;;;11.10;99.90;;;;;;5016154;28;20209;-38
2023/04/08 10:00:04;;;;;;;12.40;8.40;;;10.90;99.90;;;;;;5037672;28;20174;-38
2023/04/08 10:02:55;;;;;;;9.47;8.47;;;11.00;99.90;;;;;;5016545;28;20196;-36
2023/04/08 10:05:23;;;;;;;11.20;9.10;;;11.10;99.90;;;;;;5008520;28;20201;-39
2023/04/08 10:07:50;;;;;;;9.27;8.23;;;11.20;99.90;;;;;;5015286;28;20193;-38
2023/04/08 10:10:17;;;;;;;11.10;9.03;;;11.00;99.90;;;;;;5039451;28;20180;-41
2023/04/08 10:12:43;;;;;;;9.40;8.10;;;10.80;99.90;;;;;;5015727;28;20239;-41
2023/04/08 10:49:14;;;;;;;13.30;10.20;;;12.50;99.90;;;;;;4987533;28;20286;-91
2023/04/08 10:51:42;;;;;;;12.80;9.40;;;12.60;99.90;;;;;;4958658;28;20239;-92
2023/04/08 10:54:13;;;;;;;10.20;9.20;;;12.50;99.90;;;;;;4974418;28;20282;-91
2023/04/08 10:56:51;;;;;;;11.27;9.60;;;12.40;99.90;;;;;;4991670;28;20285;-91
2023/04/08 10:59:33;;;;;;;11.97;10.37;;;12.30;99.90;;;;;;4959402;28;20248;-91
2023/04/08 11:02:00;;;;;;;11.77;10.37;;;12.30;99.90;;;;;;4992811;28;20178;-91
2023/04/08 11:04:26;;;;;;;11.83;9.63;;;12.30;99.90;;;;;;4975549;28;20179;-91
2023/04/08 11:06:53;;;;;;;11.37;9.77;;;12.30;99.90;;;;;;4975122;28;20201;-92
2023/04/08 11:09:19;;;;;;;13.00;10.00;;;12.20;99.90;;;;;;4959409;28;20203;-91
2023/04/08 11:11:45;;;;;;;12.60;9.80;;;12.30;99.90;;;;;;4958937;28;20214;-91
2023/04/08 11:14:12;;;;;;;14.40;10.63;;;12.20;99.90;;;;;;4974549;28;20186;-91
2023/04/08 11:16:39;;;;;;;12.50;10.13;;;12.00;99.90;;;;;;4976686;28;20214;-91
2023/04/08 11:19:05;;;;;;;12.50;10.20;;;11.80;99.90;;;;;;4986094;28;20229;-91
2023/04/08 11:37:19;;;;;;;14.00;10.40;;;11.30;99.90;;;;;;4973135;28;20220;-91
2023/04/08 11:39:46;;;;;;;11.50;10.30;;;11.20;99.90;;;;;;4972450;28;20181;-76
2023/04/08 11:42:28;;;;;;;14.90;10.70;;;11.20;99.90;;;;;;4959289;28;20192;-91
2023/04/08 11:44:55;;;;;;;12.70;10.07;;;11.20;99.90;;;;;;4957298;28;20192;-91
2023/04/08 11:47:21;;;;;;;12.40;11.10;;;11.30;99.90;;;;;;4942585;28;20296;-92
2023/04/08 11:49:47;;;;;;;12.53;10.80;;;11.40;99.90;;;;;;4972293;28;20179;-92
2023/04/08 11:52:15;;;;;;;12.97;11.03;;;11.20;99.90;;;;;;4974968;28;20216;-91
2023/04/08 11:54:42;;;;;;;11.10;9.77;;;11.10;99.90;;;;;;4958623;28;20198;-91
2023/04/08 11:57:11;;;;;;;11.03;9.87;;;11.20;99.90;;;;;;4975678;28;20214;-91
2023/04/08 11:59:37;;;;;;;11.77;9.50;;;11.20;99.90;;;;;;4975821;28;20181;-91
2023/04/08 12:02:03;;;;;;;11.17;10.03;;;11.30;99.90;;;;;;4991740;28;20177;-92
2023/04/08 12:20:21;;;;;;;14.13;11.20;;;11.00;99.90;;;;;;4996077;28;20179;-91
2023/04/08 12:22:48;;;;;;;12.17;10.83;;;11.00;99.90;;;;;;4986957;28;20188;-91
2023/04/08 12:25:14;;;;;;;12.67;11.00;;;10.90;99.90;;;;;;4986241;28;20179;-91
2023/04/08 12:27:40;;;;;;;14.07;11.83;;;10.80;99.90;;;;;;4980643;28;20208;-91
2023/04/08 12:30:06;;;;;;;13.20;11.37;;;10.80;99.90;;;;;;4978391;28;20183;-91
2023/04/08 12:32:32;;;;;;;14.73;11.00;;;10.70;99.90;;;;;;5010000;28;20192;-91
2023/04/08 12:35:03;;;;;;;14.13;11.57;;;10.80;99.90;;;;;;5010040;28;20194;-91
2023/04/08 12:37:29;;;;;;;13.57;10.87;;;10.80;99.90;;;;;;4977220;28;20289;-82
2023/04/08 12:39:55;;;;;;;14.10;11.10;;;10.80;99.90;;;;;;4990137;28;20198;-91
2023/04/08 12:42:21;;;;;;;12.77;10.73;;;10.90;99.90;;;;;;4973158;28;20172;-91
2023/04/08 12:44:47;;;;;;;12.80;11.17;;;10.90;99.90;;;;;;4978352;28;20191;-91
2023/04/08 12:47:13;;;;;;;15.83;11.43;;;10.90;99.90;;;;;;4978957;28;20295;-89
2023/04/08 12:49:44;;;;;;;12.20;10.93;;;10.80;99.90;;;;;;4980410;28;20276;-88
2023/04/08 12:55:46;;;;;;;12.10;10.80;;;10.90;99.90;;;;;;5000068;28;20222;-90
2023/04/08 12:58:16;;;;;;;12.43;10.93;;;11.00;99.90;;;;;;5005609;28;20173;-81
2023/04/08 13:00:45;;;;;;;13.63;10.30;;;11.10;99.90;;;;;;5001763;28;20173;-82
2023/04/08 13:03:14;;;;;;;12.13;10.20;;;11.20;99.90;;;;;;4992400;28;20171;-77
2023/04/08 13:05:41;;;;;;;13.57;10.73;;;11.30;99.90;;;;;;5005802;28;20306;-92
2023/04/08 13:08:11;;;;;;;13.80;11.67;;;11.30;99.90;;;;;;4977023;28;20183;-91
2023/04/08 13:10:37;;;;;;;12.23;10.87;;;11.20;99.90;;;;;;5006773;28;20207;-91
2023/04/08 13:13:03;;;;;;;14.87;10.73;;;11.10;99.90;;;;;;5007482;28;20184;-92
2023/04/08 13:15:30;;;;;;;11.50;10.30;;;11.00;99.90;;;;;;5016256;28;20211;-91
2023/04/08 13:17:57;;;;;;;12.40;10.73;;;11.20;99.90;;;;;;5000086;28;20184;-91
2023/04/08 13:20:24;;;;;;;13.10;11.67;;;11.10;99.90;;;;;;5016980;28;20176;-90
2023/04/08 13:22:54;;;;;;;13.00;11.63;;;11.00;99.90;;;;;;5001178;28;20184;-91
2023/04/08 13:29:08;;;;;;;13.00;11.57;;;11.00;99.90;;;;;;5021066;28;20154;-89
2023/04/08 13:31:41;;;;;;;14.07;11.13;;;11.10;99.90;;;;;;5000516;28;20180;-87
2023/04/08 13:34:07;;;;;;;12.10;10.90;;;11.00;99.90;;;;;;4982922;28;20222;-88
2023/04/08 13:36:33;;;;;;;15.70;12.87;;;11.10;99.90;;;;;;5017961;28;20214;-89
2023/04/08 13:39:05;;;;;;;15.50;12.33;;;11.10;99.90;;;;;;5004068;28;20188;-90
2023/04/08 13:41:32;;;;;;;13.23;11.60;;;10.90;99.90;;;;;;5012022;28;20180;-91
2023/04/08 13:43:59;;;;;;;14.43;11.40;;;10.90;99.90;;;;;;5009984;28;20190;-90
2023/04/08 13:46:25;;;;;;;24.67;21.97;;;10.80;99.90;;;;;;5005271;28;20199;-91
2023/04/08 14:08:25;;;;;;;15.27;10.57;;;10.60;99.90;;;;;;5016656;28;20271;-90
2023/04/08 14:10:51;;;;;;;11.30;9.97;;;10.70;99.90;;;;;;4997235;28;20647;-81
2023/04/08 14:13:17;;;;;;;13.90;10.67;;;10.70;99.90;;;;;;4992932;28;20187;-91
2023/04/08 14:15:43;;;;;;;12.57;10.47;;;10.70;99.90;;;;;;4998647;28;20220;-91